Terminal Aerodrome Forecast
Issued by NWS Grand Forks, ND

Home | Current Version | Previous Version | Text Only | Print | Product List | Glossary Off
Versions: 1 2 3 4 5 6 7 8 9 10 11 12 13 14 15 16 17 18 19 20

000
FTUS43 KFGF 281600 AAB
TAFFAR
TAF AMD
KFAR 281605Z 2816/2912 32018G25KT P6SM OVC020
     FM290000 32015G24KT P6SM OVC020
     FM290600 32012KT P6SM BKN035=

USA.gov is the U.S. government's official web portal to all federal, state and local government web resources and services.